Terminal Aerodrome Forecast
Issued by NWS Cleveland, OH

Home | Current Version | Previous Version | Graphics & Text | Print | Product List | Glossary On
Versions: 1 2 3 4 5 6 7 8 9 10 11 12 13 14 15 16 17 18 19 20 21
000
FTUS41 KCLE 232300
TAFYNG
TAF
KYNG 232337Z 2400/2424 13007KT P6SM BKN015 OVC060
     FM240500 13007KT 3SM -RA BR OVC007
     FM240700 13010KT 3SM -RA BR OVC004
     FM241200 15012KT 3SM BR OVC007
     FM241900 17015G25KT P6SM -SHRA OVC025=

USA.gov is the U.S. government's official web portal to all federal, state and local government web resources and services.